sensor_id;sensor_type;location;lat;lon;timestamp;P1;durP1;ratioP1;P2;durP2;ratioP2
80983;SDS011;73733;53.046;8.724;2024-01-10T00:00:09;5.20;;;2.83;;
80983;SDS011;73733;53.046;8.724;2024-01-10T00:02:35;4.10;;;2.47;;
80983;SDS011;73733;53.046;8.724;2024-01-10T00:05:00;5.05;;;3.30;;
80983;SDS011;73733;53.046;8.724;2024-01-10T00:07:25;5.50;;;2.80;;
80983;SDS011;73733;53.046;8.724;2024-01-10T00:09:51;3.80;;;2.53;;
80983;SDS011;73733;53.046;8.724;2024-01-10T00:12:16;5.93;;;3.00;;
80983;SDS011;73733;53.046;8.724;2024-01-10T00:14:41;3.60;;;2.47;;
80983;SDS011;73733;53.046;8.724;2024-01-10T00:17:07;5.00;;;2.50;;
80983;SDS011;73733;53.046;8.724;2024-01-10T00:19:32;4.93;;;3.33;;
80983;SDS011;73733;53.046;8.724;2024-01-10T00:21:58;4.75;;;2.70;;
80983;SDS011;73733;53.046;8.724;2024-01-10T00:24:23;5.07;;;3.13;;
80983;SDS011;73733;53.046;8.724;2024-01-10T00:26:48;4.07;;;2.67;;
80983;SDS011;73733;53.046;8.724;2024-01-10T00:29:14;3.60;;;2.73;;
80983;SDS011;73733;53.046;8.724;2024-01-10T00:31:39;5.03;;;3.07;;
80983;SDS011;73733;53.046;8.724;2024-01-10T00:34:04;5.10;;;3.05;;
80983;SDS011;73733;53.046;8.724;2024-01-10T00:36:30;4.67;;;2.77;;
80983;SDS011;73733;53.046;8.724;2024-01-10T00:38:55;4.67;;;2.73;;
80983;SDS011;73733;53.046;8.724;2024-01-10T00:41:21;4.22;;;2.85;;
80983;SDS011;73733;53.046;8.724;2024-01-10T00:43:46;4.07;;;2.60;;
80983;SDS011;73733;53.046;8.724;2024-01-10T00:46:11;4.97;;;3.50;;
80983;SDS011;73733;53.046;8.724;2024-01-10T00:48:36;5.37;;;2.97;;
80983;SDS011;73733;53.046;8.724;2024-01-10T00:51:02;3.70;;;2.20;;
80983;SDS011;73733;53.046;8.724;2024-01-10T00:53:27;5.55;;;2.80;;
80983;SDS011;73733;53.046;8.724;2024-01-10T00:55:52;5.23;;;3.17;;
80983;SDS011;73733;53.046;8.724;2024-01-10T00:58:18;4.60;;;3.10;;
80983;SDS011;73733;53.046;8.724;2024-01-10T01:00:43;4.18;;;2.85;;
80983;SDS011;73733;53.046;8.724;2024-01-10T01:03:08;3.87;;;2.07;;
80983;SDS011;73733;53.046;8.724;2024-01-10T01:05:34;3.90;;;2.70;;
80983;SDS011;73733;53.046;8.724;2024-01-10T01:07:59;5.90;;;2.70;;
80983;SDS011;73733;53.046;8.724;2024-01-10T01:10:24;4.27;;;2.57;;
80983;SDS011;73733;53.046;8.724;2024-01-10T01:12:50;4.10;;;2.93;;
80983;SDS011;73733;53.046;8.724;2024-01-10T01:15:15;5.57;;;3.10;;
80983;SDS011;73733;53.046;8.724;2024-01-10T01:17:40;4.50;;;3.30;;
80983;SDS011;73733;53.046;8.724;2024-01-10T01:20:06;3.87;;;2.57;;
80983;SDS011;73733;53.046;8.724;2024-01-10T01:22:32;5.47;;;3.05;;
80983;SDS011;73733;53.046;8.724;2024-01-10T01:24:57;3.72;;;2.20;;
80983;SDS011;73733;53.046;8.724;2024-01-10T01:27:23;4.00;;;2.40;;
80983;SDS011;73733;53.046;8.724;2024-01-10T01:29:48;3.30;;;2.15;;
80983;SDS011;73733;53.046;8.724;2024-01-10T01:32:14;4.65;;;2.83;;
80983;SDS011;73733;53.046;8.724;2024-01-10T01:34:39;5.57;;;3.27;;
80983;SDS011;73733;53.046;8.724;2024-01-10T01:37:04;4.13;;;2.70;;
80983;SDS011;73733;53.046;8.724;2024-01-10T01:39:30;4.65;;;2.83;;
80983;SDS011;73733;53.046;8.724;2024-01-10T01:41:55;3.77;;;2.57;;
80983;SDS011;73733;53.046;8.724;2024-01-10T01:44:20;3.63;;;2.63;;
80983;SDS011;73733;53.046;8.724;2024-01-10T01:46:46;3.72;;;2.83;;
80983;SDS011;73733;53.046;8.724;2024-01-10T01:49:12;4.65;;;2.70;;
80983;SDS011;73733;53.046;8.724;2024-01-10T01:51:37;4.53;;;2.42;;
80983;SDS011;73733;53.046;8.724;2024-01-10T01:54:06;5.03;;;3.40;;
80983;SDS011;73733;53.046;8.724;2024-01-10T01:56:36;3.80;;;2.58;;
80983;SDS011;73733;53.046;8.724;2024-01-10T01:59:02;6.63;;;3.45;;
80983;SDS011;73733;53.046;8.724;2024-01-10T02:01:29;5.43;;;3.28;;
80983;SDS011;73733;53.046;8.724;2024-01-10T02:03:54;5.78;;;3.15;;
80983;SDS011;73733;53.046;8.724;2024-01-10T02:06:20;4.50;;;3.03;;
80983;SDS011;73733;53.046;8.724;2024-01-10T02:08:45;4.80;;;2.77;;
80983;SDS011;73733;53.046;8.724;2024-01-10T02:11:11;3.33;;;2.38;;
80983;SDS011;73733;53.046;8.724;2024-01-10T02:13:36;6.55;;;2.97;;
80983;SDS011;73733;53.046;8.724;2024-01-10T02:16:03;4.13;;;2.60;;
80983;SDS011;73733;53.046;8.724;2024-01-10T02:18:28;6.28;;;3.17;;
80983;SDS011;73733;53.046;8.724;2024-01-10T02:20:54;3.78;;;2.40;;
80983;SDS011;73733;53.046;8.724;2024-01-10T02:23:19;4.87;;;2.70;;
80983;SDS011;73733;53.046;8.724;2024-01-10T02:25:45;5.57;;;3.47;;
80983;SDS011;73733;53.046;8.724;2024-01-10T02:28:10;3.55;;;2.72;;
80983;SDS011;73733;53.046;8.724;2024-01-10T02:30:35;5.77;;;3.23;;
80983;SDS011;73733;53.046;8.724;2024-01-10T02:33:01;5.30;;;2.92;;
80983;SDS011;73733;53.046;8.724;2024-01-10T02:35:27;4.10;;;2.60;;
80983;SDS011;73733;53.046;8.724;2024-01-10T02:37:52;4.60;;;2.92;;
80983;SDS011;73733;53.046;8.724;2024-01-10T02:40:19;4.28;;;2.35;;
80983;SDS011;73733;53.046;8.724;2024-01-10T02:42:44;4.68;;;2.75;;
80983;SDS011;73733;53.046;8.724;2024-01-10T02:45:09;5.13;;;2.90;;
80983;SDS011;73733;53.046;8.724;2024-01-10T02:47:35;4.27;;;2.80;;
80983;SDS011;73733;53.046;8.724;2024-01-10T02:50:02;3.72;;;2.63;;
80983;SDS011;73733;53.046;8.724;2024-01-10T02:52:27;5.05;;;2.70;;
80983;SDS011;73733;53.046;8.724;2024-01-10T02:54:53;5.70;;;3.07;;
80983;SDS011;73733;53.046;8.724;2024-01-10T02:57:18;5.07;;;2.90;;
80983;SDS011;73733;53.046;8.724;2024-01-10T02:59:43;5.57;;;2.83;;
80983;SDS011;73733;53.046;8.724;2024-01-10T03:02:09;4.30;;;2.53;;
80983;SDS011;73733;53.046;8.724;2024-01-10T03:04:34;3.87;;;2.80;;
80983;SDS011;73733;53.046;8.724;2024-01-10T03:06:59;5.67;;;2.97;;
80983;SDS011;73733;53.046;8.724;2024-01-10T03:09:25;5.27;;;3.47;;
80983;SDS011;73733;53.046;8.724;2024-01-10T03:11:50;4.37;;;2.90;;
80983;SDS011;73733;53.046;8.724;2024-01-10T03:14:15;4.80;;;3.07;;
80983;SDS011;73733;53.046;8.724;2024-01-10T03:16:40;4.60;;;2.77;;
80983;SDS011;73733;53.046;8.724;2024-01-10T03:19:06;4.53;;;2.73;;
80983;SDS011;73733;53.046;8.724;2024-01-10T03:21:31;4.07;;;2.80;;
80983;SDS011;73733;53.046;8.724;2024-01-10T03:23:57;3.77;;;2.70;;
80983;SDS011;73733;53.046;8.724;2024-01-10T03:26:23;5.60;;;2.63;;
80983;SDS011;73733;53.046;8.724;2024-01-10T03:28:49;4.57;;;2.88;;
80983;SDS011;73733;53.046;8.724;2024-01-10T03:31:14;4.72;;;2.63;;
80983;SDS011;73733;53.046;8.724;2024-01-10T03:33:40;4.82;;;2.63;;
80983;SDS011;73733;53.046;8.724;2024-01-10T03:36:06;5.63;;;3.20;;
80983;SDS011;73733;53.046;8.724;2024-01-10T03:38:33;3.95;;;2.67;;
80983;SDS011;73733;53.046;8.724;2024-01-10T03:40:59;4.93;;;2.73;;
80983;SDS011;73733;53.046;8.724;2024-01-10T03:43:24;5.03;;;3.13;;
80983;SDS011;73733;53.046;8.724;2024-01-10T03:45:49;3.57;;;2.37;;
80983;SDS011;73733;53.046;8.724;2024-01-10T03:48:15;4.93;;;3.20;;
80983;SDS011;73733;53.046;8.724;2024-01-10T03:50:40;6.00;;;2.90;;
80983;SDS011;73733;53.046;8.724;2024-01-10T03:53:05;4.40;;;2.90;;
80983;SDS011;73733;53.046;8.724;2024-01-10T03:55:31;4.78;;;3.13;;
80983;SDS011;73733;53.046;8.724;2024-01-10T03:57:56;5.10;;;3.07;;
80983;SDS011;73733;53.046;8.724;2024-01-10T04:00:21;4.00;;;2.90;;
80983;SDS011;73733;53.046;8.724;2024-01-10T04:02:47;3.80;;;3.10;;
80983;SDS011;73733;53.046;8.724;2024-01-10T04:05:12;4.27;;;2.97;;
80983;SDS011;73733;53.046;8.724;2024-01-10T04:07:41;4.15;;;2.55;;
80983;SDS011;73733;53.046;8.724;2024-01-10T04:10:08;4.32;;;2.47;;
80983;SDS011;73733;53.046;8.724;2024-01-10T04:12:35;4.55;;;3.17;;
80983;SDS011;73733;53.046;8.724;2024-01-10T04:15:01;4.28;;;2.92;;
80983;SDS011;73733;53.046;8.724;2024-01-10T04:17:26;8.17;;;3.13;;
80983;SDS011;73733;53.046;8.724;2024-01-10T04:19:52;4.37;;;2.70;;
80983;SDS011;73733;53.046;8.724;2024-01-10T04:22:17;4.50;;;3.10;;
80983;SDS011;73733;53.046;8.724;2024-01-10T04:24:42;4.67;;;3.00;;
80983;SDS011;73733;53.046;8.724;2024-01-10T04:27:08;4.60;;;2.92;;
80983;SDS011;73733;53.046;8.724;2024-01-10T04:29:33;6.30;;;3.23;;
80983;SDS011;73733;53.046;8.724;2024-01-10T04:31:58;5.90;;;2.43;;
80983;SDS011;73733;53.046;8.724;2024-01-10T04:34:23;5.60;;;3.13;;
80983;SDS011;73733;53.046;8.724;2024-01-10T04:36:49;6.43;;;3.05;;
80983;SDS011;73733;53.046;8.724;2024-01-10T04:39:15;3.87;;;2.60;;
80983;SDS011;73733;53.046;8.724;2024-01-10T04:41:40;7.47;;;4.83;;
80983;SDS011;73733;53.046;8.724;2024-01-10T04:44:05;4.73;;;3.40;;
80983;SDS011;73733;53.046;8.724;2024-01-10T04:46:30;4.43;;;2.93;;
80983;SDS011;73733;53.046;8.724;2024-01-10T04:48:56;4.63;;;3.23;;
80983;SDS011;73733;53.046;8.724;2024-01-10T04:51:21;9.40;;;4.30;;
80983;SDS011;73733;53.046;8.724;2024-01-10T04:53:47;5.38;;;3.20;;
80983;SDS011;73733;53.046;8.724;2024-01-10T04:56:12;4.33;;;2.50;;
80983;SDS011;73733;53.046;8.724;2024-01-10T04:58:38;3.77;;;2.97;;
80983;SDS011;73733;53.046;8.724;2024-01-10T05:01:03;6.30;;;3.27;;
80983;SDS011;73733;53.046;8.724;2024-01-10T05:03:28;4.40;;;2.70;;
80983;SDS011;73733;53.046;8.724;2024-01-10T05:05:54;6.40;;;3.47;;
80983;SDS011;73733;53.046;8.724;2024-01-10T05:08:19;4.33;;;3.17;;
80983;SDS011;73733;53.046;8.724;2024-01-10T05:10:47;6.10;;;3.63;;
80983;SDS011;73733;53.046;8.724;2024-01-10T05:13:12;5.50;;;3.23;;
80983;SDS011;73733;53.046;8.724;2024-01-10T05:15:38;4.73;;;3.27;;
80983;SDS011;73733;53.046;8.724;2024-01-10T05:18:03;5.13;;;3.40;;
80983;SDS011;73733;53.046;8.724;2024-01-10T05:20:28;3.88;;;2.72;;
80983;SDS011;73733;53.046;8.724;2024-01-10T05:22:54;5.50;;;3.30;;
80983;SDS011;73733;53.046;8.724;2024-01-10T05:25:23;5.10;;;3.50;;
80983;SDS011;73733;53.046;8.724;2024-01-10T05:27:48;5.40;;;3.70;;
80983;SDS011;73733;53.046;8.724;2024-01-10T05:30:14;5.30;;;3.40;;
80983;SDS011;73733;53.046;8.724;2024-01-10T05:32:39;4.25;;;3.08;;
80983;SDS011;73733;53.046;8.724;2024-01-10T05:35:04;4.80;;;2.73;;
80983;SDS011;73733;53.046;8.724;2024-01-10T05:37:30;5.75;;;3.15;;
80983;SDS011;73733;53.046;8.724;2024-01-10T05:39:55;4.43;;;2.60;;
80983;SDS011;73733;53.046;8.724;2024-01-10T05:42:21;4.13;;;2.70;;
80983;SDS011;73733;53.046;8.724;2024-01-10T05:44:46;5.50;;;3.17;;
80983;SDS011;73733;53.046;8.724;2024-01-10T05:47:11;4.40;;;2.73;;
80983;SDS011;73733;53.046;8.724;2024-01-10T05:49:37;4.97;;;2.90;;
80983;SDS011;73733;53.046;8.724;2024-01-10T05:52:02;4.40;;;2.90;;
80983;SDS011;73733;53.046;8.724;2024-01-10T05:54:28;5.25;;;3.33;;
80983;SDS011;73733;53.046;8.724;2024-01-10T05:56:53;5.50;;;2.97;;
80983;SDS011;73733;53.046;8.724;2024-01-10T05:59:18;4.20;;;2.65;;
80983;SDS011;73733;53.046;8.724;2024-01-10T06:01:44;4.57;;;2.73;;
80983;SDS011;73733;53.046;8.724;2024-01-10T06:04:09;3.07;;;2.57;;
80983;SDS011;73733;53.046;8.724;2024-01-10T06:06:34;5.83;;;2.73;;
80983;SDS011;73733;53.046;8.724;2024-01-10T06:08:59;8.53;;;3.27;;
80983;SDS011;73733;53.046;8.724;2024-01-10T06:11:25;6.07;;;2.80;;
80983;SDS011;73733;53.046;8.724;2024-01-10T06:13:50;5.43;;;3.80;;
80983;SDS011;73733;53.046;8.724;2024-01-10T06:16:15;4.07;;;2.70;;
80983;SDS011;73733;53.046;8.724;2024-01-10T06:18:41;4.72;;;2.95;;
80983;SDS011;73733;53.046;8.724;2024-01-10T06:21:07;4.43;;;2.85;;
80983;SDS011;73733;53.046;8.724;2024-01-10T06:23:32;3.65;;;2.28;;
80983;SDS011;73733;53.046;8.724;2024-01-10T06:25:58;4.90;;;2.83;;
80983;SDS011;73733;53.046;8.724;2024-01-10T06:28:23;4.33;;;2.50;;
80983;SDS011;73733;53.046;8.724;2024-01-10T06:30:49;4.23;;;2.60;;
80983;SDS011;73733;53.046;8.724;2024-01-10T06:33:14;4.80;;;2.85;;
80983;SDS011;73733;53.046;8.724;2024-01-10T06:35:40;5.50;;;3.72;;
80983;SDS011;73733;53.046;8.724;2024-01-10T06:38:08;6.63;;;2.47;;
80983;SDS011;73733;53.046;8.724;2024-01-10T06:40:34;6.22;;;3.38;;
80983;SDS011;73733;53.046;8.724;2024-01-10T06:42:59;5.37;;;3.10;;
80983;SDS011;73733;53.046;8.724;2024-01-10T06:45:24;5.83;;;3.47;;
80983;SDS011;73733;53.046;8.724;2024-01-10T06:47:51;4.20;;;2.47;;
80983;SDS011;73733;53.046;8.724;2024-01-10T06:50:16;5.00;;;2.87;;
80983;SDS011;73733;53.046;8.724;2024-01-10T06:52:41;5.18;;;2.75;;
80983;SDS011;73733;53.046;8.724;2024-01-10T06:55:07;5.23;;;2.70;;
80983;SDS011;73733;53.046;8.724;2024-01-10T06:57:33;5.10;;;3.15;;
80983;SDS011;73733;53.046;8.724;2024-01-10T06:59:58;5.67;;;3.03;;
80983;SDS011;73733;53.046;8.724;2024-01-10T07:02:23;4.03;;;2.40;;
80983;SDS011;73733;53.046;8.724;2024-01-10T07:04:49;4.53;;;3.03;;
80983;SDS011;73733;53.046;8.724;2024-01-10T07:07:14;6.80;;;3.70;;
80983;SDS011;73733;53.046;8.724;2024-01-10T07:09:39;6.20;;;3.08;;
80983;SDS011;73733;53.046;8.724;2024-01-10T07:12:06;4.78;;;2.85;;
80983;SDS011;73733;53.046;8.724;2024-01-10T07:14:32;4.47;;;3.08;;
80983;SDS011;73733;53.046;8.724;2024-01-10T07:16:57;5.37;;;2.97;;
80983;SDS011;73733;53.046;8.724;2024-01-10T07:19:22;4.27;;;2.93;;
80983;SDS011;73733;53.046;8.724;2024-01-10T07:21:49;3.83;;;2.25;;
80983;SDS011;73733;53.046;8.724;2024-01-10T07:24:15;4.75;;;3.03;;
80983;SDS011;73733;53.046;8.724;2024-01-10T07:26:40;4.07;;;2.80;;
80983;SDS011;73733;53.046;8.724;2024-01-10T07:29:05;5.33;;;3.03;;
80983;SDS011;73733;53.046;8.724;2024-01-10T07:31:33;4.85;;;2.60;;
80983;SDS011;73733;53.046;8.724;2024-01-10T07:33:59;4.93;;;2.90;;
80983;SDS011;73733;53.046;8.724;2024-01-10T07:36:24;5.40;;;2.50;;
80983;SDS011;73733;53.046;8.724;2024-01-10T07:38:54;4.30;;;2.70;;
80983;SDS011;73733;53.046;8.724;2024-01-10T07:41:19;4.60;;;3.10;;
80983;SDS011;73733;53.046;8.724;2024-01-10T07:43:45;4.30;;;2.70;;
80983;SDS011;73733;53.046;8.724;2024-01-10T07:46:10;4.50;;;2.37;;
80983;SDS011;73733;53.046;8.724;2024-01-10T07:48:36;4.72;;;2.85;;
80983;SDS011;73733;53.046;8.724;2024-01-10T07:51:02;4.15;;;2.75;;
80983;SDS011;73733;53.046;8.724;2024-01-10T07:53:29;4.38;;;2.95;;
80983;SDS011;73733;53.046;8.724;2024-01-10T07:55:54;4.57;;;2.83;;
80983;SDS011;73733;53.046;8.724;2024-01-10T07:58:19;4.70;;;3.25;;
80983;SDS011;73733;53.046;8.724;2024-01-10T08:00:45;5.07;;;2.63;;
80983;SDS011;73733;53.046;8.724;2024-01-10T08:03:11;4.60;;;2.75;;
80983;SDS011;73733;53.046;8.724;2024-01-10T08:05:37;4.68;;;2.42;;
80983;SDS011;73733;53.046;8.724;2024-01-10T08:08:02;5.40;;;2.77;;
80983;SDS011;73733;53.046;8.724;2024-01-10T08:10:28;3.08;;;2.30;;
80983;SDS011;73733;53.046;8.724;2024-01-10T08:12:54;3.95;;;2.80;;
80983;SDS011;73733;53.046;8.724;2024-01-10T08:15:19;5.60;;;2.77;;
80983;SDS011;73733;53.046;8.724;2024-01-10T08:17:45;5.03;;;2.85;;
80983;SDS011;73733;53.046;8.724;2024-01-10T08:20:10;4.32;;;2.65;;
80983;SDS011;73733;53.046;8.724;2024-01-10T08:22:35;4.88;;;2.65;;
80983;SDS011;73733;53.046;8.724;2024-01-10T08:25:01;4.53;;;3.10;;
80983;SDS011;73733;53.046;8.724;2024-01-10T08:27:27;5.20;;;3.33;;
80983;SDS011;73733;53.046;8.724;2024-01-10T08:29:53;4.17;;;2.73;;
80983;SDS011;73733;53.046;8.724;2024-01-10T08:32:18;4.93;;;3.73;;
80983;SDS011;73733;53.046;8.724;2024-01-10T08:34:45;4.25;;;2.58;;
80983;SDS011;73733;53.046;8.724;2024-01-10T08:37:10;4.20;;;2.77;;
80983;SDS011;73733;53.046;8.724;2024-01-10T08:39:36;5.23;;;3.10;;
80983;SDS011;73733;53.046;8.724;2024-01-10T08:42:01;4.53;;;2.97;;
80983;SDS011;73733;53.046;8.724;2024-01-10T08:44:26;4.63;;;2.83;;
80983;SDS011;73733;53.046;8.724;2024-01-10T08:46:52;5.30;;;3.93;;
80983;SDS011;73733;53.046;8.724;2024-01-10T08:49:18;5.00;;;3.10;;
80983;SDS011;73733;53.046;8.724;2024-01-10T08:51:43;4.13;;;3.00;;
80983;SDS011;73733;53.046;8.724;2024-01-10T08:54:11;5.03;;;3.05;;
80983;SDS011;73733;53.046;8.724;2024-01-10T08:56:37;4.45;;;2.70;;
80983;SDS011;73733;53.046;8.724;2024-01-10T08:59:03;5.37;;;3.93;;
80983;SDS011;73733;53.046;8.724;2024-01-10T09:01:28;5.50;;;3.35;;
80983;SDS011;73733;53.046;8.724;2024-01-10T09:03:54;7.13;;;3.90;;
80983;SDS011;73733;53.046;8.724;2024-01-10T09:06:19;5.07;;;3.43;;
80983;SDS011;73733;53.046;8.724;2024-01-10T09:08:46;5.82;;;3.22;;
80983;SDS011;73733;53.046;8.724;2024-01-10T09:11:11;6.00;;;3.70;;
80983;SDS011;73733;53.046;8.724;2024-01-10T09:13:36;5.90;;;3.90;;
80983;SDS011;73733;53.046;8.724;2024-01-10T09:16:04;5.28;;;3.97;;
80983;SDS011;73733;53.046;8.724;2024-01-10T09:18:30;6.67;;;3.90;;
80983;SDS011;73733;53.046;8.724;2024-01-10T09:20:55;7.20;;;3.67;;
80983;SDS011;73733;53.046;8.724;2024-01-10T09:23:20;6.33;;;3.70;;
80983;SDS011;73733;53.046;8.724;2024-01-10T09:25:46;6.80;;;3.97;;
80983;SDS011;73733;53.046;8.724;2024-01-10T09:28:11;5.83;;;3.43;;
80983;SDS011;73733;53.046;8.724;2024-01-10T09:30:36;4.77;;;2.90;;
80983;SDS011;73733;53.046;8.724;2024-01-10T09:33:02;7.97;;;3.63;;
80983;SDS011;73733;53.046;8.724;2024-01-10T09:35:27;6.18;;;3.72;;
80983;SDS011;73733;53.046;8.724;2024-01-10T09:37:52;6.37;;;3.60;;
80983;SDS011;73733;53.046;8.724;2024-01-10T09:40:18;6.10;;;3.03;;
80983;SDS011;73733;53.046;8.724;2024-01-10T09:42:46;4.97;;;2.85;;
80983;SDS011;73733;53.046;8.724;2024-01-10T09:45:14;4.80;;;3.38;;
80983;SDS011;73733;53.046;8.724;2024-01-10T09:47:41;5.90;;;3.25;;
80983;SDS011;73733;53.046;8.724;2024-01-10T09:50:08;6.10;;;3.38;;
80983;SDS011;73733;53.046;8.724;2024-01-10T09:52:39;6.55;;;4.05;;
80983;SDS011;73733;53.046;8.724;2024-01-10T09:55:06;5.45;;;3.45;;
80983;SDS011;73733;53.046;8.724;2024-01-10T09:57:32;5.70;;;3.50;;
80983;SDS011;73733;53.046;8.724;2024-01-10T09:59:59;7.35;;;3.30;;
80983;SDS011;73733;53.046;8.724;2024-01-10T10:02:27;7.07;;;4.05;;
80983;SDS011;73733;53.046;8.724;2024-01-10T10:05:25;6.60;;;3.50;;
80983;SDS011;73733;53.046;8.724;2024-01-10T10:10:16;4.28;;;2.75;;
80983;SDS011;73733;53.046;8.724;2024-01-10T10:15:26;3.80;;;2.60;;
80983;SDS011;73733;53.046;8.724;2024-01-10T10:17:51;5.30;;;3.05;;
80983;SDS011;73733;53.046;8.724;2024-01-10T10:20:25;5.03;;;2.88;;
80983;SDS011;73733;53.046;8.724;2024-01-10T10:22:58;4.22;;;2.60;;
80983;SDS011;73733;53.046;8.724;2024-01-10T10:25:28;4.18;;;2.67;;
80983;SDS011;73733;53.046;8.724;2024-01-10T10:28:01;3.92;;;2.55;;
80983;SDS011;73733;53.046;8.724;2024-01-10T10:32:53;4.63;;;2.63;;
80983;SDS011;73733;53.046;8.724;2024-01-10T10:35:20;4.55;;;2.65;;
80983;SDS011;73733;53.046;8.724;2024-01-10T10:37:47;5.07;;;3.00;;
80983;SDS011;73733;53.046;8.724;2024-01-10T10:40:16;3.63;;;2.40;;
80983;SDS011;73733;53.046;8.724;2024-01-10T10:42:53;4.28;;;3.47;;
80983;SDS011;73733;53.046;8.724;2024-01-10T10:45:20;5.50;;;2.92;;
80983;SDS011;73733;53.046;8.724;2024-01-10T10:47:50;3.70;;;2.80;;
80983;SDS011;73733;53.046;8.724;2024-01-10T10:50:24;3.92;;;2.90;;
80983;SDS011;73733;53.046;8.724;2024-01-10T10:52:52;3.83;;;2.63;;
80983;SDS011;73733;53.046;8.724;2024-01-10T10:55:20;3.25;;;2.75;;
80983;SDS011;73733;53.046;8.724;2024-01-10T10:57:48;5.05;;;3.25;;
80983;SDS011;73733;53.046;8.724;2024-01-10T11:00:14;3.70;;;2.75;;
80983;SDS011;73733;53.046;8.724;2024-01-10T11:05:06;4.75;;;3.30;;
80983;SDS011;73733;53.046;8.724;2024-01-10T11:07:34;4.07;;;2.45;;
80983;SDS011;73733;53.046;8.724;2024-01-10T11:10:00;3.53;;;2.55;;
80983;SDS011;73733;53.046;8.724;2024-01-10T11:15:24;5.43;;;2.83;;
80983;SDS011;73733;53.046;8.724;2024-01-10T11:23:39;4.15;;;2.63;;
80983;SDS011;73733;53.046;8.724;2024-01-10T11:26:09;5.13;;;3.60;;
80983;SDS011;73733;53.046;8.724;2024-01-10T11:28:35;4.25;;;2.95;;
80983;SDS011;73733;53.046;8.724;2024-01-10T11:31:03;4.68;;;3.08;;
80983;SDS011;73733;53.046;8.724;2024-01-10T11:33:31;4.78;;;3.13;;
80983;SDS011;73733;53.046;8.724;2024-01-10T11:36:07;3.72;;;2.67;;
80983;SDS011;73733;53.046;8.724;2024-01-10T11:38:43;2.92;;;2.20;;
80983;SDS011;73733;53.046;8.724;2024-01-10T11:41:11;3.75;;;2.33;;
80983;SDS011;73733;53.046;8.724;2024-01-10T11:43:38;3.97;;;2.33;;
80983;SDS011;73733;53.046;8.724;2024-01-10T11:46:03;3.08;;;2.40;;
80983;SDS011;73733;53.046;8.724;2024-01-10T11:48:30;3.80;;;2.47;;
80983;SDS011;73733;53.046;8.724;2024-01-10T11:50:57;3.67;;;2.50;;
80983;SDS011;73733;53.046;8.724;2024-01-10T11:53:42;3.83;;;2.85;;
80983;SDS011;73733;53.046;8.724;2024-01-10T11:56:14;3.53;;;2.63;;
80983;SDS011;73733;53.046;8.724;2024-01-10T12:01:25;3.50;;;2.38;;
80983;SDS011;73733;53.046;8.724;2024-01-10T12:03:52;3.75;;;2.40;;
80983;SDS011;73733;53.046;8.724;2024-01-10T12:06:18;3.38;;;2.33;;
80983;SDS011;73733;53.046;8.724;2024-01-10T12:08:46;3.20;;;2.80;;
80983;SDS011;73733;53.046;8.724;2024-01-10T12:11:11;3.60;;;2.17;;
80983;SDS011;73733;53.046;8.724;2024-01-10T12:13:36;3.63;;;2.40;;
80983;SDS011;73733;53.046;8.724;2024-01-10T12:16:02;3.85;;;2.28;;
80983;SDS011;73733;53.046;8.724;2024-01-10T12:18:27;2.92;;;2.13;;
80983;SDS011;73733;53.046;8.724;2024-01-10T12:20:52;3.20;;;2.33;;
80983;SDS011;73733;53.046;8.724;2024-01-10T12:23:18;3.13;;;2.38;;
80983;SDS011;73733;53.046;8.724;2024-01-10T12:25:43;4.10;;;2.70;;
80983;SDS011;73733;53.046;8.724;2024-01-10T12:28:08;3.90;;;2.47;;
80983;SDS011;73733;53.046;8.724;2024-01-10T12:30:34;3.57;;;2.80;;
80983;SDS011;73733;53.046;8.724;2024-01-10T12:32:59;3.17;;;2.20;;
80983;SDS011;73733;53.046;8.724;2024-01-10T12:35:25;3.33;;;2.38;;
80983;SDS011;73733;53.046;8.724;2024-01-10T12:37:54;2.73;;;1.77;;
80983;SDS011;73733;53.046;8.724;2024-01-10T12:40:20;3.03;;;2.08;;
80983;SDS011;73733;53.046;8.724;2024-01-10T12:42:45;3.13;;;2.13;;
80983;SDS011;73733;53.046;8.724;2024-01-10T12:45:20;2.83;;;2.27;;
80983;SDS011;73733;53.046;8.724;2024-01-10T12:47:46;2.80;;;1.73;;
80983;SDS011;73733;53.046;8.724;2024-01-10T12:50:12;2.47;;;1.80;;
80983;SDS011;73733;53.046;8.724;2024-01-10T12:52:37;3.10;;;2.00;;
80983;SDS011;73733;53.046;8.724;2024-01-10T12:55:04;3.30;;;1.85;;
80983;SDS011;73733;53.046;8.724;2024-01-10T12:57:30;3.10;;;1.90;;
80983;SDS011;73733;53.046;8.724;2024-01-10T12:59:55;2.73;;;2.07;;
80983;SDS011;73733;53.046;8.724;2024-01-10T13:02:20;2.67;;;1.87;;
80983;SDS011;73733;53.046;8.724;2024-01-10T13:04:46;3.13;;;2.15;;
80983;SDS011;73733;53.046;8.724;2024-01-10T13:07:12;2.78;;;2.35;;
80983;SDS011;73733;53.046;8.724;2024-01-10T13:09:37;3.27;;;2.40;;
80983;SDS011;73733;53.046;8.724;2024-01-10T13:12:02;2.67;;;2.00;;
80983;SDS011;73733;53.046;8.724;2024-01-10T13:14:28;3.13;;;2.17;;
80983;SDS011;73733;53.046;8.724;2024-01-10T13:16:56;3.55;;;2.25;;
80983;SDS011;73733;53.046;8.724;2024-01-10T13:19:21;3.40;;;2.20;;
80983;SDS011;73733;53.046;8.724;2024-01-10T13:21:46;4.57;;;2.47;;
80983;SDS011;73733;53.046;8.724;2024-01-10T13:24:12;2.70;;;1.77;;
80983;SDS011;73733;53.046;8.724;2024-01-10T13:26:37;3.87;;;1.97;;
80983;SDS011;73733;53.046;8.724;2024-01-10T13:29:03;2.47;;;1.60;;
80983;SDS011;73733;53.046;8.724;2024-01-10T13:31:28;3.20;;;2.03;;
80983;SDS011;73733;53.046;8.724;2024-01-10T13:33:54;2.97;;;1.77;;
80983;SDS011;73733;53.046;8.724;2024-01-10T13:36:19;3.13;;;1.90;;
80983;SDS011;73733;53.046;8.724;2024-01-10T13:38:44;3.93;;;2.43;;
80983;SDS011;73733;53.046;8.724;2024-01-10T13:41:10;4.10;;;2.60;;
80983;SDS011;73733;53.046;8.724;2024-01-10T13:43:35;2.67;;;2.10;;
80983;SDS011;73733;53.046;8.724;2024-01-10T13:46:01;2.88;;;1.98;;
80983;SDS011;73733;53.046;8.724;2024-01-10T13:48:29;4.28;;;2.10;;
80983;SDS011;73733;53.046;8.724;2024-01-10T13:50:54;2.42;;;2.00;;
80983;SDS011;73733;53.046;8.724;2024-01-10T13:53:20;3.97;;;2.07;;
80983;SDS011;73733;53.046;8.724;2024-01-10T13:55:45;3.27;;;2.00;;
80983;SDS011;73733;53.046;8.724;2024-01-10T13:58:11;3.47;;;2.20;;
80983;SDS011;73733;53.046;8.724;2024-01-10T14:00:37;3.28;;;1.95;;
80983;SDS011;73733;53.046;8.724;2024-01-10T14:03:03;3.65;;;2.40;;
80983;SDS011;73733;53.046;8.724;2024-01-10T14:05:29;3.30;;;2.10;;
80983;SDS011;73733;53.046;8.724;2024-01-10T14:07:54;3.17;;;1.83;;
80983;SDS011;73733;53.046;8.724;2024-01-10T14:10:20;3.30;;;2.10;;
80983;SDS011;73733;53.046;8.724;2024-01-10T14:12:46;3.22;;;2.00;;
80983;SDS011;73733;53.046;8.724;2024-01-10T14:15:11;2.37;;;1.80;;
80983;SDS011;73733;53.046;8.724;2024-01-10T14:17:36;3.07;;;1.80;;
80983;SDS011;73733;53.046;8.724;2024-01-10T14:20:02;3.47;;;2.20;;
80983;SDS011;73733;53.046;8.724;2024-01-10T14:22:27;2.97;;;1.83;;
80983;SDS011;73733;53.046;8.724;2024-01-10T14:24:53;3.40;;;1.80;;
80983;SDS011;73733;53.046;8.724;2024-01-10T14:27:19;4.18;;;2.22;;
80983;SDS011;73733;53.046;8.724;2024-01-10T14:29:45;3.15;;;1.88;;
80983;SDS011;73733;53.046;8.724;2024-01-10T14:32:11;3.90;;;2.05;;
80983;SDS011;73733;53.046;8.724;2024-01-10T14:34:38;4.55;;;1.92;;
80983;SDS011;73733;53.046;8.724;2024-01-10T14:37:04;3.47;;;1.80;;
80983;SDS011;73733;53.046;8.724;2024-01-10T14:39:29;2.70;;;1.60;;
80983;SDS011;73733;53.046;8.724;2024-01-10T14:41:55;4.10;;;2.20;;
80983;SDS011;73733;53.046;8.724;2024-01-10T14:44:20;3.88;;;2.03;;
80983;SDS011;73733;53.046;8.724;2024-01-10T14:46:45;3.23;;;2.23;;
80983;SDS011;73733;53.046;8.724;2024-01-10T14:49:11;3.70;;;2.00;;
80983;SDS011;73733;53.046;8.724;2024-01-10T14:51:36;3.80;;;1.97;;
80983;SDS011;73733;53.046;8.724;2024-01-10T14:54:01;4.60;;;2.33;;
80983;SDS011;73733;53.046;8.724;2024-01-10T14:56:28;2.97;;;1.80;;
80983;SDS011;73733;53.046;8.724;2024-01-10T14:58:53;4.83;;;2.37;;
80983;SDS011;73733;53.046;8.724;2024-01-10T15:01:19;3.93;;;2.40;;